メインページ
METAR-TAF:

METAR-TAF

空港 :

クアラルンプール国際空港

クアラルンプール, マレーシア

緯度: 02-44N, 経度: 101-42E, 海抜: 21m

現時点の気象観測

当レポートは44分前の02:00(UTC)に作成
変向風 2kt
気温 28°C
湿度 79%
気圧 1011 hPa
視程10km以上
高度1700ftの雲はほとんどない, 積乱雲.
高度28000ftの千切れ雲あり

METAR: WMKK 150200Z VRB02KT 9999 FEW017CB BKN280 28/24 Q1011 NOSIG

時間: 10:44 (02:44 UTC)

予報

当レポートは3時間44分前の23:00(UTC)に作成
予報は15日の 00時(UTC)から 16日の 06時(UTC)まで有効
北/北東の風 5kt
視程: 8000m
高度3000ftの雲はほとんどない
15日の 00時(UTC)から 15日の 02時(UTC)まで徐々に
西/南西の風 5kt
視程10km以上
高度1700ftの雲はほとんどない, 積乱雲.
15日の 08時(UTC)から 15日の 12時(UTC)まで一時的に
西の風 8kt、最大20ktの突風を伴う
視程: 3000m
高度1000ftの雲はほとんどない
高度1600ftの雲はほとんどない, 積乱雲.
高度1800ftの雲は散在している
激しい雷雨, 雨
15日の 14時(UTC)から 15日の 15時(UTC)まで徐々に
変向風 2kt
視程: 8000m
高度1000ftの雲はほとんどない
高度1700ftの雲はほとんどない, 積乱雲.

TAF: WMKK 142300Z 1500/1606 02005KT 8000 FEW030 BECMG 1500/1502 25005KT 9999 FEW017CB TEMPO 1508/1512 26008G20KT 3000 TSRA FEW010 FEW016CB SCT018 BECMG 1514/1515 VRB02KT 8000 FEW010 FEW017CB

4,000以上の空港の気象観測と天気予報(METAR報とTAF報)

利用可能な観測所は地図上に黄色い丸と赤い丸で示す。

丸の上にカーソルを重ねると観測所名を参照できる。

次にクリックすると気象観測と天気予報を参照できる。

マップの切り替え:黒色「×」印の緑ボタンをクリックして拡大、「-」印の緑ボタンをクリックして縮小、緑色の三角印をクリックして隣りの地図に切り替え


METAR-TAF: